createdAt,value
2023-04-22T00:01:35.152Z,54.60
2023-04-22T00:04:03.107Z,54.80
2023-04-22T00:06:31.901Z,54.90
2023-04-22T00:08:59.145Z,54.90
2023-04-22T00:11:26.456Z,54.90
2023-04-22T00:13:53.681Z,54.90
2023-04-22T00:16:21.552Z,55.00
2023-04-22T00:18:49.108Z,55.80
2023-04-22T00:21:16.457Z,55.20
2023-04-22T00:23:45.249Z,55.40
2023-04-22T00:26:12.469Z,55.80
2023-04-22T00:28:40.473Z,55.70
2023-04-22T00:31:07.847Z,55.60
2023-04-22T00:33:35.172Z,56.10
2023-04-22T00:36:02.633Z,56.60
2023-04-22T00:38:29.923Z,56.70
2023-04-22T00:40:57.776Z,57.00
2023-04-22T00:43:25.187Z,57.30
2023-04-22T00:45:53.105Z,57.40
2023-04-22T00:48:20.990Z,57.50
2023-04-22T00:50:48.607Z,57.40
2023-04-22T00:53:16.450Z,57.10
2023-04-22T00:55:43.762Z,56.90
2023-04-22T00:58:11.265Z,56.60
2023-04-22T01:00:38.596Z,56.50
2023-04-22T01:03:07.371Z,56.60
2023-04-22T01:05:35.083Z,56.70
2023-04-22T01:08:02.559Z,56.30
2023-04-22T01:10:29.818Z,56.40
2023-04-22T01:12:57.044Z,56.50
2023-04-22T01:15:24.417Z,56.30
2023-04-22T01:17:53.600Z,56.40
2023-04-22T01:20:22.764Z,56.40
2023-04-22T01:22:54.897Z,57.10
2023-04-22T01:25:24.949Z,56.60
2023-04-22T01:27:52.828Z,56.50
2023-04-22T01:30:20.771Z,56.50
2023-04-22T01:32:48.369Z,56.80
2023-04-22T01:35:15.767Z,57.00
2023-04-22T01:37:43.066Z,57.40
2023-04-22T01:40:11.246Z,57.30
2023-04-22T01:42:38.897Z,57.40
2023-04-22T01:45:07.400Z,57.40
2023-04-22T01:47:34.641Z,57.50
2023-04-22T01:50:01.890Z,57.60
2023-04-22T01:52:29.560Z,58.00
2023-04-22T01:54:58.569Z,58.30
2023-04-22T01:57:25.820Z,58.10
2023-04-22T01:59:54.116Z,58.00
2023-04-22T02:02:22.817Z,58.20
2023-04-22T02:04:50.746Z,58.50
2023-04-22T02:07:18.456Z,58.60
2023-04-22T02:09:46.684Z,58.80
2023-04-22T02:12:15.142Z,58.70
2023-04-22T02:14:42.557Z,58.60
2023-04-22T02:17:09.920Z,59.00
2023-04-22T02:19:37.340Z,59.30
2023-04-22T02:22:04.792Z,59.20
2023-04-22T02:24:32.184Z,59.30
2023-04-22T02:27:00.312Z,59.30
2023-04-22T02:29:28.766Z,59.50
2023-04-22T02:31:59.956Z,59.50
2023-04-22T02:34:27.928Z,59.50
2023-04-22T02:36:55.427Z,59.40
2023-04-22T02:39:22.878Z,59.40
2023-04-22T02:41:50.230Z,59.40
2023-04-22T02:44:17.701Z,59.30
2023-04-22T02:46:45.147Z,59.30
2023-04-22T02:49:12.473Z,59.40
2023-04-22T02:51:41.054Z,59.70
2023-04-22T02:54:08.475Z,59.50
2023-04-22T02:56:36.245Z,59.60
2023-04-22T02:59:03.527Z,59.50
2023-04-22T03:01:32.142Z,59.50
2023-04-22T03:04:02.750Z,59.70
2023-04-22T03:06:31.667Z,59.70
2023-04-22T03:08:59.298Z,59.90
2023-04-22T03:11:27.060Z,59.70
2023-04-22T03:13:54.454Z,59.80
2023-04-22T03:16:24.334Z,59.60
2023-04-22T03:18:53.933Z,59.70
2023-04-22T03:21:22.321Z,59.70
2023-04-22T03:23:51.757Z,59.60
2023-04-22T03:26:19.262Z,59.60
2023-04-22T03:28:46.764Z,59.50
2023-04-22T03:31:14.281Z,59.50
2023-04-22T03:33:42.007Z,59.50
2023-04-22T03:36:18.555Z,59.40
2023-04-22T03:38:46.180Z,59.30
2023-04-22T03:41:13.577Z,59.50
2023-04-22T03:43:45.314Z,59.80
2023-04-22T03:46:12.549Z,59.90
2023-04-22T03:48:42.794Z,59.80
2023-04-22T03:51:16.457Z,59.70
2023-04-22T03:53:43.752Z,59.90
2023-04-22T03:56:16.452Z,60.20
2023-04-22T03:58:46.512Z,60.20
2023-04-22T04:01:14.196Z,60.00
2023-04-22T04:03:45.078Z,60.00
2023-04-22T04:06:13.900Z,60.30
2023-04-22T04:08:41.322Z,60.40
2023-04-22T04:11:10.642Z,60.80
2023-04-22T04:13:38.681Z,60.90
2023-04-22T04:16:17.906Z,61.10
2023-04-22T04:18:51.767Z,61.30
2023-04-22T04:21:21.218Z,61.70
2023-04-22T04:23:51.487Z,61.40
2023-04-22T04:26:23.880Z,61.90
2023-04-22T04:28:56.083Z,62.10
2023-04-22T04:31:24.969Z,62.10
2023-04-22T04:33:53.598Z,62.00
2023-04-22T04:36:21.140Z,62.00
2023-04-22T04:38:49.161Z,62.20
2023-04-22T04:41:16.625Z,62.50
2023-04-22T04:43:46.357Z,63.40
2023-04-22T04:46:34.689Z,62.40
2023-04-22T04:49:02.570Z,62.10
2023-04-22T04:51:32.736Z,62.10
2023-04-22T04:54:01.527Z,62.20
2023-04-22T04:56:34.799Z,62.20
2023-04-22T04:59:02.221Z,62.50
2023-04-22T05:01:29.762Z,62.90
2023-04-22T05:04:02.962Z,63.40
2023-04-22T05:06:31.380Z,63.50
2023-04-22T05:09:03.407Z,63.40
2023-04-22T05:11:30.811Z,63.30
2023-04-22T05:14:00.660Z,63.00
2023-04-22T05:16:33.135Z,62.80
2023-04-22T05:19:01.011Z,61.60
2023-04-22T05:21:28.743Z,60.60
2023-04-22T05:23:56.466Z,59.00
2023-04-22T05:26:24.454Z,57.30
2023-04-22T05:28:52.009Z,56.00
2023-04-22T05:31:20.073Z,55.00
2023-04-22T05:33:48.007Z,54.20
2023-04-22T05:36:15.393Z,53.90
2023-04-22T05:38:44.173Z,53.80
2023-04-22T05:41:11.481Z,53.80
2023-04-22T05:43:38.694Z,53.50
2023-04-22T05:46:14.650Z,53.10
2023-04-22T05:48:43.182Z,53.80
2023-04-22T05:51:23.699Z,53.00
2023-04-22T05:53:51.267Z,52.40
2023-04-22T05:56:20.959Z,52.00
2023-04-22T05:58:48.297Z,51.50
2023-04-22T06:01:18.635Z,50.40
2023-04-22T06:03:58.965Z,49.40
2023-04-22T06:06:27.555Z,48.30
2023-04-22T06:08:55.059Z,46.90
2023-04-22T06:11:22.501Z,45.90
2023-04-22T06:13:49.852Z,44.40
2023-04-22T06:16:17.714Z,43.70
2023-04-22T06:18:45.501Z,42.60
2023-04-22T06:21:13.012Z,42.00
2023-04-22T06:23:40.801Z,41.40
2023-04-22T06:26:08.405Z,40.30
2023-04-22T06:28:37.834Z,39.90
2023-04-22T06:31:10.995Z,39.10
2023-04-22T06:33:38.672Z,38.30
2023-04-22T06:36:06.521Z,37.50
2023-04-22T06:38:35.516Z,36.80
2023-04-22T06:41:22.741Z,36.40
2023-04-22T06:43:51.839Z,35.80
2023-04-22T06:46:19.043Z,35.50
2023-04-22T06:49:08.829Z,35.50
2023-04-22T06:51:55.157Z,35.20
2023-04-22T06:54:22.644Z,35.00
2023-04-22T06:56:51.094Z,34.20
2023-04-22T06:59:18.579Z,33.20
2023-04-22T07:01:47.470Z,32.80
2023-04-22T07:04:15.157Z,32.80
2023-04-22T07:06:43.549Z,31.80
2023-04-22T07:09:13.612Z,32.30
2023-04-22T07:11:41.058Z,31.40
2023-04-22T07:14:13.623Z,31.70
2023-04-22T07:16:41.437Z,31.70
2023-04-22T07:19:09.393Z,31.60
2023-04-22T07:21:36.614Z,31.70
2023-04-22T07:24:04.034Z,31.50
2023-04-22T07:26:32.414Z,31.30
2023-04-22T07:28:59.750Z,30.50
2023-04-22T07:31:27.104Z,30.60
2023-04-22T07:33:54.313Z,31.30
2023-04-22T07:36:21.718Z,30.80
2023-04-22T07:38:49.087Z,31.10
2023-04-22T07:41:16.458Z,31.70
2023-04-22T07:43:43.773Z,31.40
2023-04-22T07:46:11.306Z,31.20
2023-04-22T07:48:38.786Z,31.10
2023-04-22T07:51:06.114Z,31.30
2023-04-22T07:53:33.446Z,31.40
2023-04-22T07:56:04.441Z,31.20
2023-04-22T07:58:31.816Z,31.20
2023-04-22T08:00:59.284Z,31.00
2023-04-22T08:03:26.952Z,30.60
2023-04-22T08:05:56.602Z,30.40
2023-04-22T08:08:24.727Z,30.30
2023-04-22T08:10:52.055Z,30.70
2023-04-22T08:13:19.322Z,30.80
2023-04-22T08:15:46.718Z,30.90
2023-04-22T08:18:14.371Z,30.90
2023-04-22T08:20:41.820Z,31.40
2023-04-22T08:23:09.323Z,31.60
2023-04-22T08:25:36.995Z,31.60
2023-04-22T08:28:04.455Z,31.90
2023-04-22T08:30:31.831Z,31.80
2023-04-22T08:32:59.214Z,31.50
2023-04-22T08:35:27.069Z,31.20
2023-04-22T08:37:54.466Z,30.90
2023-04-22T08:40:22.011Z,30.80
2023-04-22T08:42:51.981Z,30.40
2023-04-22T08:45:20.044Z,29.90
2023-04-22T08:47:52.275Z,30.00
2023-04-22T08:50:22.386Z,29.80
2023-04-22T08:52:49.724Z,30.00
2023-04-22T08:55:16.995Z,29.90
2023-04-22T08:57:44.851Z,29.70
2023-04-22T09:00:13.288Z,30.00
2023-04-22T09:02:45.065Z,31.00
2023-04-22T09:05:14.865Z,30.70
2023-04-22T09:07:42.318Z,30.30
2023-04-22T09:10:11.815Z,30.30
2023-04-22T09:12:41.170Z,30.00
2023-04-22T09:15:09.705Z,30.00
2023-04-22T09:17:41.277Z,30.00
2023-04-22T09:20:09.741Z,30.90
2023-04-22T09:22:44.198Z,30.50
2023-04-22T09:25:23.328Z,30.30
2023-04-22T09:27:52.903Z,30.30
2023-04-22T09:30:31.997Z,30.00
2023-04-22T09:33:01.568Z,30.30
2023-04-22T09:35:33.892Z,30.20
2023-04-22T09:38:03.285Z,30.10
2023-04-22T09:40:31.863Z,29.70
2023-04-22T09:43:01.629Z,30.50
2023-04-22T09:45:32.937Z,30.60
2023-04-22T09:48:12.061Z,30.50
2023-04-22T09:50:42.963Z,30.80
2023-04-22T09:53:12.482Z,30.60
2023-04-22T09:55:58.041Z,31.00
2023-04-22T09:58:27.538Z,31.80
2023-04-22T10:00:57.012Z,32.20
2023-04-22T10:03:24.818Z,32.10
2023-04-22T10:05:52.383Z,32.00
2023-04-22T10:08:19.824Z,31.50
2023-04-22T10:10:47.245Z,32.50
2023-04-22T10:13:14.671Z,32.80
2023-04-22T10:15:50.508Z,32.70
2023-04-22T10:18:26.990Z,32.30
2023-04-22T10:20:56.897Z,31.90
2023-04-22T10:23:25.082Z,32.00
2023-04-22T10:25:56.207Z,32.40
2023-04-22T10:28:27.440Z,32.20
2023-04-22T10:30:54.875Z,32.70
2023-04-22T10:33:28.423Z,32.20
2023-04-22T10:36:21.948Z,32.60
2023-04-22T10:38:55.519Z,32.40
2023-04-22T10:41:24.478Z,32.20
2023-04-22T10:44:02.523Z,32.20
2023-04-22T10:46:37.420Z,32.40
2023-04-22T10:49:13.548Z,31.00
2023-04-22T10:51:44.652Z,30.60
2023-04-22T10:54:31.490Z,31.10
2023-04-22T10:57:14.632Z,31.20
2023-04-22T11:00:15.751Z,32.00
2023-04-22T11:02:46.842Z,33.20
2023-04-22T11:05:20.881Z,33.20
2023-04-22T11:07:50.089Z,33.60
2023-04-22T11:10:42.964Z,32.60
2023-04-22T11:13:16.761Z,32.50
2023-04-22T11:15:46.370Z,32.40
2023-04-22T11:18:18.362Z,32.10
2023-04-22T11:20:48.339Z,32.30
2023-04-22T11:23:19.716Z,32.50
2023-04-22T11:25:47.019Z,32.20
2023-04-22T11:28:14.370Z,32.50
2023-04-22T11:30:41.882Z,32.40
2023-04-22T11:33:09.309Z,33.10
2023-04-22T11:35:38.091Z,33.60
2023-04-22T11:38:06.456Z,33.80
2023-04-22T11:40:38.577Z,33.00
2023-04-22T11:43:08.202Z,33.80
2023-04-22T11:45:37.284Z,33.50
2023-04-22T11:48:07.191Z,33.50
2023-04-22T11:50:37.032Z,34.20
2023-04-22T11:53:13.213Z,34.20
2023-04-22T11:55:41.668Z,33.80
2023-04-22T11:58:11.494Z,33.80
2023-04-22T12:00:46.345Z,33.70
2023-04-22T12:03:21.033Z,33.20
2023-04-22T12:06:03.775Z,32.90
2023-04-22T12:08:33.591Z,33.40
2023-04-22T12:11:03.739Z,33.70
2023-04-22T12:13:32.920Z,32.90
2023-04-22T12:16:01.473Z,32.80
2023-04-22T12:18:36.160Z,32.20
2023-04-22T12:21:14.538Z,32.50
2023-04-22T12:23:49.767Z,32.50
2023-04-22T12:26:19.586Z,31.90
2023-04-22T12:28:47.398Z,32.10
2023-04-22T12:31:15.246Z,31.70
2023-04-22T12:33:43.461Z,32.20
2023-04-22T12:36:11.176Z,32.20
2023-04-22T12:38:39.240Z,31.70
2023-04-22T12:41:07.431Z,32.00
2023-04-22T12:43:39.271Z,32.20
2023-04-22T12:46:07.832Z,31.70
2023-04-22T12:48:37.387Z,32.00
2023-04-22T12:51:06.487Z,31.40
2023-04-22T12:53:34.176Z,31.80
2023-04-22T12:56:01.707Z,31.40
2023-04-22T12:58:29.077Z,31.50
2023-04-22T13:00:56.456Z,31.50
2023-04-22T13:03:24.128Z,32.70
2023-04-22T13:05:52.713Z,32.00
2023-04-22T13:08:20.116Z,32.50
2023-04-22T13:10:47.832Z,31.00
2023-04-22T13:13:19.096Z,31.30
2023-04-22T13:15:49.867Z,31.40
2023-04-22T13:18:17.368Z,31.50
2023-04-22T13:20:45.042Z,32.00
2023-04-22T13:23:13.209Z,31.40
2023-04-22T13:25:40.745Z,31.60
2023-04-22T13:28:08.382Z,31.50
2023-04-22T13:30:36.295Z,31.10
2023-04-22T13:33:03.572Z,31.20
2023-04-22T13:35:31.069Z,31.00
2023-04-22T13:37:58.776Z,30.40
2023-04-22T13:40:27.236Z,30.20
2023-04-22T13:42:55.161Z,30.50
2023-04-22T13:45:22.740Z,31.20
2023-04-22T13:47:50.268Z,30.90
2023-04-22T13:50:17.603Z,30.80
2023-04-22T13:52:44.892Z,30.20
2023-04-22T13:55:12.202Z,30.60
2023-04-22T13:57:39.418Z,30.60
2023-04-22T14:00:07.342Z,31.30
2023-04-22T14:02:39.387Z,31.00
2023-04-22T14:05:07.446Z,30.90
2023-04-22T14:07:34.755Z,31.30
2023-04-22T14:10:02.215Z,31.00
2023-04-22T14:12:29.606Z,29.30
2023-04-22T14:14:56.808Z,29.80
2023-04-22T14:17:24.030Z,29.80
2023-04-22T14:19:51.214Z,29.40
2023-04-22T14:22:18.699Z,29.70
2023-04-22T14:24:46.034Z,29.20
2023-04-22T14:27:13.280Z,29.20
2023-04-22T14:29:40.803Z,29.10
2023-04-22T14:32:08.382Z,29.20
2023-04-22T14:34:35.721Z,28.70
2023-04-22T14:37:03.090Z,29.60
2023-04-22T14:39:30.497Z,28.80
2023-04-22T14:41:57.971Z,28.70
2023-04-22T14:44:26.058Z,28.60
2023-04-22T14:46:53.564Z,29.40
2023-04-22T14:49:21.084Z,29.50
2023-04-22T14:51:48.912Z,29.50
2023-04-22T14:54:16.321Z,29.60
2023-04-22T14:56:43.659Z,29.40
2023-04-22T14:59:11.031Z,28.90
2023-04-22T15:01:41.647Z,28.80
2023-04-22T15:04:12.429Z,29.00
2023-04-22T15:06:39.754Z,29.00
2023-04-22T15:09:07.253Z,29.40
2023-04-22T15:11:34.870Z,29.70
2023-04-22T15:14:02.543Z,30.00
2023-04-22T15:16:30.313Z,29.70
2023-04-22T15:18:57.798Z,30.40
2023-04-22T15:21:25.269Z,30.20
2023-04-22T15:23:52.992Z,29.90
2023-04-22T15:26:20.549Z,30.40
2023-04-22T15:28:50.669Z,30.60
2023-04-22T15:31:20.749Z,31.10
2023-04-22T15:33:48.232Z,31.30
2023-04-22T15:36:18.082Z,30.70
2023-04-22T15:38:45.308Z,30.40
2023-04-22T15:41:13.102Z,31.10
2023-04-22T15:43:40.585Z,30.50
2023-04-22T15:46:08.951Z,30.60
2023-04-22T15:48:36.383Z,30.50
2023-04-22T15:51:03.969Z,30.90
2023-04-22T15:53:31.170Z,31.00
2023-04-22T15:55:58.580Z,31.30
2023-04-22T15:58:26.787Z,31.20
2023-04-22T16:00:55.112Z,31.20
2023-04-22T16:03:23.811Z,32.10
2023-04-22T16:05:51.267Z,31.10
2023-04-22T16:08:18.672Z,31.20
2023-04-22T16:10:45.900Z,31.10
2023-04-22T16:13:13.268Z,31.30
2023-04-22T16:15:40.757Z,31.50
2023-04-22T16:18:08.383Z,31.70
2023-04-22T16:20:35.719Z,32.10
2023-04-22T16:23:03.277Z,32.10
2023-04-22T16:25:30.726Z,32.30
2023-04-22T16:27:58.107Z,32.50
2023-04-22T16:30:25.468Z,32.50
2023-04-22T16:32:53.009Z,32.60
2023-04-22T16:35:20.707Z,33.20
2023-04-22T16:37:48.077Z,32.70
2023-04-22T16:40:15.468Z,33.30
2023-04-22T16:42:42.969Z,33.30
2023-04-22T16:45:10.697Z,33.10
2023-04-22T16:47:38.126Z,33.30
2023-04-22T16:50:06.661Z,33.20
2023-04-22T16:52:34.178Z,33.40
2023-04-22T16:55:01.712Z,33.60
2023-04-22T16:57:29.204Z,33.50
2023-04-22T16:59:57.003Z,33.90
2023-04-22T17:02:24.650Z,34.10
2023-04-22T17:04:52.004Z,34.20
2023-04-22T17:07:19.398Z,34.20
2023-04-22T17:09:48.687Z,34.50
2023-04-22T17:12:16.066Z,34.70
2023-04-22T17:14:43.545Z,34.80
2023-04-22T17:17:10.913Z,35.10
2023-04-22T17:19:38.257Z,35.00
2023-04-22T17:22:05.673Z,35.20
2023-04-22T17:24:32.868Z,35.10
2023-04-22T17:27:01.537Z,36.30
2023-04-22T17:29:28.938Z,35.70
2023-04-22T17:31:56.453Z,35.90
2023-04-22T17:34:24.156Z,36.60
2023-04-22T17:36:51.602Z,36.20
2023-04-22T17:39:19.314Z,36.20
2023-04-22T17:41:46.728Z,36.20
2023-04-22T17:44:14.111Z,36.40
2023-04-22T17:46:41.791Z,36.50
2023-04-22T17:49:09.557Z,36.60
2023-04-22T17:51:37.217Z,36.80
2023-04-22T17:54:05.232Z,36.90
2023-04-22T17:56:32.840Z,37.20
2023-04-22T17:59:01.021Z,37.30
2023-04-22T18:01:31.968Z,37.10
2023-04-22T18:03:59.667Z,37.10
2023-04-22T18:06:28.837Z,37.30
2023-04-22T18:08:56.255Z,37.40
2023-04-22T18:11:23.855Z,37.60
2023-04-22T18:13:51.270Z,37.80
2023-04-22T18:16:19.061Z,38.00
2023-04-22T18:18:46.482Z,38.20
2023-04-22T18:21:13.870Z,38.20
2023-04-22T18:23:41.445Z,38.10
2023-04-22T18:26:11.605Z,38.30
2023-04-22T18:28:43.405Z,38.20
2023-04-22T18:31:11.178Z,38.30
2023-04-22T18:33:38.507Z,37.90
2023-04-22T18:36:06.066Z,37.80
2023-04-22T18:38:33.246Z,37.80
2023-04-22T18:41:00.656Z,38.00
2023-04-22T18:43:27.997Z,38.10
2023-04-22T18:45:55.323Z,37.80
2023-04-22T18:48:22.820Z,37.80
2023-04-22T18:50:50.525Z,38.70
2023-04-22T18:53:17.887Z,39.10
2023-04-22T18:55:45.634Z,39.10
2023-04-22T18:58:13.678Z,39.10
2023-04-22T19:00:41.109Z,39.30
2023-04-22T19:03:08.805Z,39.00
2023-04-22T19:05:36.192Z,39.50
2023-04-22T19:08:03.371Z,39.90
2023-04-22T19:10:30.756Z,40.40
2023-04-22T19:12:59.302Z,41.90
2023-04-22T19:15:26.610Z,41.70
2023-04-22T19:17:54.072Z,42.20
2023-04-22T19:20:21.616Z,42.20
2023-04-22T19:22:49.483Z,41.60
2023-04-22T19:25:18.651Z,41.60
2023-04-22T19:27:46.164Z,42.10
2023-04-22T19:30:14.718Z,42.30
2023-04-22T19:32:42.501Z,42.70
2023-04-22T19:35:15.610Z,43.10
2023-04-22T19:37:43.266Z,43.80
2023-04-22T19:40:12.098Z,44.00
2023-04-22T19:42:39.566Z,43.90
2023-04-22T19:45:09.078Z,44.00
2023-04-22T19:47:37.490Z,44.60
2023-04-22T19:50:06.524Z,43.10
2023-04-22T19:52:35.099Z,42.90
2023-04-22T19:55:09.188Z,42.90
2023-04-22T19:57:37.679Z,43.30
2023-04-22T20:00:07.041Z,43.10
2023-04-22T20:02:40.002Z,43.70
2023-04-22T20:05:08.297Z,44.00
2023-04-22T20:07:36.594Z,43.50
2023-04-22T20:10:06.305Z,43.80
2023-04-22T20:12:34.123Z,43.80
2023-04-22T20:15:03.164Z,43.40
2023-04-22T20:17:35.542Z,43.70
2023-04-22T20:20:06.749Z,43.60
2023-04-22T20:22:35.170Z,43.30
2023-04-22T20:25:05.281Z,43.30
2023-04-22T20:27:34.132Z,43.50
2023-04-22T20:30:01.985Z,43.50
2023-04-22T20:32:30.268Z,44.10
2023-04-22T20:34:58.697Z,44.10
2023-04-22T20:37:28.288Z,44.50
2023-04-22T20:39:56.464Z,44.60
2023-04-22T20:42:24.779Z,44.40
2023-04-22T20:44:52.546Z,44.50
2023-04-22T20:47:20.612Z,44.90
2023-04-22T20:49:48.216Z,44.90
2023-04-22T20:52:16.335Z,45.20
2023-04-22T20:54:44.003Z,46.10
2023-04-22T20:57:11.740Z,46.10
2023-04-22T20:59:39.048Z,46.10
2023-04-22T21:02:08.399Z,46.20
2023-04-22T21:04:36.382Z,46.20
2023-04-22T21:07:07.102Z,46.20
2023-04-22T21:09:34.861Z,46.60
2023-04-22T21:12:02.345Z,46.20
2023-04-22T21:14:30.013Z,46.20
2023-04-22T21:17:05.152Z,46.10
2023-04-22T21:19:34.072Z,46.10
2023-04-22T21:22:07.072Z,45.90
2023-04-22T21:24:35.579Z,45.90
2023-04-22T21:27:03.517Z,45.70
2023-04-22T21:29:31.033Z,45.60
2023-04-22T21:32:07.932Z,45.60
2023-04-22T21:34:37.690Z,45.70
2023-04-22T21:37:07.158Z,46.00
2023-04-22T21:39:34.631Z,47.40
2023-04-22T21:42:07.757Z,48.30
2023-04-22T21:44:36.935Z,49.40
2023-04-22T21:47:05.076Z,49.50
2023-04-22T21:49:32.536Z,49.90
2023-04-22T21:52:00.174Z,50.40
2023-04-22T21:54:27.598Z,50.90
2023-04-22T21:56:56.227Z,51.00
2023-04-22T21:59:24.712Z,51.20
2023-04-22T22:01:52.615Z,51.30
2023-04-22T22:04:20.523Z,52.00
2023-04-22T22:06:48.777Z,52.70
2023-04-22T22:09:16.041Z,52.80
2023-04-22T22:11:43.351Z,52.60
2023-04-22T22:14:10.623Z,53.20
2023-04-22T22:16:38.319Z,53.60
2023-04-22T22:19:06.412Z,53.80
2023-04-22T22:21:33.755Z,54.20
2023-04-22T22:24:00.953Z,54.60
2023-04-22T22:26:29.078Z,54.60
2023-04-22T22:28:56.518Z,54.60
2023-04-22T22:31:23.853Z,55.00
2023-04-22T22:33:51.150Z,55.20
2023-04-22T22:36:19.231Z,55.30
2023-04-22T22:38:46.491Z,55.50
2023-04-22T22:41:14.035Z,55.60
2023-04-22T22:43:41.497Z,55.40
2023-04-22T22:46:09.007Z,55.50
2023-04-22T22:48:36.739Z,56.00
2023-04-22T22:51:04.063Z,56.00
2023-04-22T22:53:32.984Z,57.00
2023-04-22T22:56:00.461Z,56.50
2023-04-22T22:58:27.815Z,56.50
2023-04-22T23:00:55.184Z,56.90
2023-04-22T23:03:23.296Z,57.00
2023-04-22T23:05:50.604Z,57.20
2023-04-22T23:08:17.879Z,57.20
2023-04-22T23:10:45.394Z,57.60
2023-04-22T23:13:12.837Z,57.70
2023-04-22T23:15:40.484Z,58.20
2023-04-22T23:18:09.003Z,58.20
2023-04-22T23:20:37.021Z,58.30
2023-04-22T23:23:04.836Z,58.50
2023-04-22T23:25:32.496Z,58.60
2023-04-22T23:28:00.554Z,58.70
2023-04-22T23:30:28.214Z,58.80
2023-04-22T23:32:57.654Z,58.80
2023-04-22T23:35:27.310Z,59.10
2023-04-22T23:37:56.622Z,59.10
2023-04-22T23:40:24.177Z,59.10
2023-04-22T23:42:51.533Z,59.10
2023-04-22T23:45:18.898Z,59.00
2023-04-22T23:47:46.346Z,58.50
2023-04-22T23:50:14.078Z,58.00
2023-04-22T23:52:42.490Z,57.60
2023-04-22T23:55:11.875Z,57.30
2023-04-22T23:57:39.386Z,57.50
